sensor_id;sensor_type;location;lat;lon;timestamp;P1;durP1;ratioP1;P2;durP2;ratioP2
32297;SDS011;18782;48.984;8.548;2022-09-12T00:00:50;5.15;;;4.65;;
32297;SDS011;18782;48.984;8.548;2022-09-12T00:03:17;5.50;;;4.35;;
32297;SDS011;18782;48.984;8.548;2022-09-12T00:05:46;5.72;;;5.00;;
32297;SDS011;18782;48.984;8.548;2022-09-12T00:08:13;5.60;;;4.65;;
32297;SDS011;18782;48.984;8.548;2022-09-12T00:10:43;5.57;;;4.85;;
32297;SDS011;18782;48.984;8.548;2022-09-12T00:13:10;5.20;;;4.70;;
32297;SDS011;18782;48.984;8.548;2022-09-12T00:15:39;6.13;;;4.72;;
32297;SDS011;18782;48.984;8.548;2022-09-12T00:18:08;7.65;;;4.60;;
32297;SDS011;18782;48.984;8.548;2022-09-12T00:20:40;5.60;;;4.85;;
32297;SDS011;18782;48.984;8.548;2022-09-12T00:23:07;5.18;;;4.43;;
32297;SDS011;18782;48.984;8.548;2022-09-12T00:25:39;6.38;;;4.60;;
32297;SDS011;18782;48.984;8.548;2022-09-12T00:28:09;5.45;;;4.70;;
32297;SDS011;18782;48.984;8.548;2022-09-12T00:30:40;6.40;;;5.10;;
32297;SDS011;18782;48.984;8.548;2022-09-12T00:33:08;5.05;;;4.50;;
32297;SDS011;18782;48.984;8.548;2022-09-12T00:35:40;5.80;;;4.93;;
32297;SDS011;18782;48.984;8.548;2022-09-12T00:38:09;4.95;;;4.45;;
32297;SDS011;18782;48.984;8.548;2022-09-12T00:40:37;10.35;;;4.90;;
32297;SDS011;18782;48.984;8.548;2022-09-12T00:43:04;6.93;;;5.13;;
32297;SDS011;18782;48.984;8.548;2022-09-12T00:45:37;6.47;;;4.82;;
32297;SDS011;18782;48.984;8.548;2022-09-12T00:48:12;5.15;;;4.50;;
32297;SDS011;18782;48.984;8.548;2022-09-12T00:50:48;5.40;;;4.90;;
32297;SDS011;18782;48.984;8.548;2022-09-12T00:53:16;5.10;;;4.60;;
32297;SDS011;18782;48.984;8.548;2022-09-12T00:55:45;5.57;;;4.97;;
32297;SDS011;18782;48.984;8.548;2022-09-12T00:58:17;5.88;;;5.38;;
32297;SDS011;18782;48.984;8.548;2022-09-12T01:00:49;5.05;;;4.55;;
32297;SDS011;18782;48.984;8.548;2022-09-12T01:03:18;5.15;;;4.65;;
32297;SDS011;18782;48.984;8.548;2022-09-12T01:05:50;7.30;;;5.00;;
32297;SDS011;18782;48.984;8.548;2022-09-12T01:08:25;6.03;;;5.32;;
32297;SDS011;18782;48.984;8.548;2022-09-12T01:10:55;6.15;;;4.90;;
32297;SDS011;18782;48.984;8.548;2022-09-12T01:13:23;5.30;;;4.70;;
32297;SDS011;18782;48.984;8.548;2022-09-12T01:15:53;5.90;;;4.50;;
32297;SDS011;18782;48.984;8.548;2022-09-12T01:18:23;6.55;;;5.00;;
32297;SDS011;18782;48.984;8.548;2022-09-12T01:20:58;6.28;;;5.22;;
32297;SDS011;18782;48.984;8.548;2022-09-12T01:23:59;5.50;;;5.00;;
32297;SDS011;18782;48.984;8.548;2022-09-12T01:27:08;6.15;;;5.05;;
32297;SDS011;18782;48.984;8.548;2022-09-12T01:30:03;7.07;;;4.90;;
32297;SDS011;18782;48.984;8.548;2022-09-12T01:32:49;8.10;;;5.40;;
32297;SDS011;18782;48.984;8.548;2022-09-12T01:35:24;5.63;;;5.13;;
32297;SDS011;18782;48.984;8.548;2022-09-12T01:38:01;9.27;;;5.60;;
32297;SDS011;18782;48.984;8.548;2022-09-12T01:40:39;6.30;;;4.90;;
32297;SDS011;18782;48.984;8.548;2022-09-12T01:43:15;6.28;;;5.07;;
32297;SDS011;18782;48.984;8.548;2022-09-12T01:45:55;5.93;;;5.20;;
32297;SDS011;18782;48.984;8.548;2022-09-12T01:48:27;7.22;;;5.35;;
32297;SDS011;18782;48.984;8.548;2022-09-12T01:50:57;6.82;;;5.63;;
32297;SDS011;18782;48.984;8.548;2022-09-12T01:53:33;6.03;;;5.20;;
32297;SDS011;18782;48.984;8.548;2022-09-12T01:56:05;6.78;;;5.80;;
32297;SDS011;18782;48.984;8.548;2022-09-12T01:58:37;6.47;;;5.18;;
32297;SDS011;18782;48.984;8.548;2022-09-12T02:03:41;7.60;;;5.78;;
32297;SDS011;18782;48.984;8.548;2022-09-12T02:06:14;6.03;;;5.30;;
32297;SDS011;18782;48.984;8.548;2022-09-12T02:08:46;6.13;;;5.47;;
32297;SDS011;18782;48.984;8.548;2022-09-12T02:11:17;6.88;;;5.18;;
32297;SDS011;18782;48.984;8.548;2022-09-12T02:13:46;5.90;;;5.20;;
32297;SDS011;18782;48.984;8.548;2022-09-12T02:16:22;6.40;;;5.75;;
32297;SDS011;18782;48.984;8.548;2022-09-12T02:18:56;6.13;;;5.53;;
32297;SDS011;18782;48.984;8.548;2022-09-12T02:21:29;7.10;;;5.00;;
32297;SDS011;18782;48.984;8.548;2022-09-12T02:23:58;5.43;;;4.85;;
32297;SDS011;18782;48.984;8.548;2022-09-12T02:26:30;6.30;;;5.45;;
32297;SDS011;18782;48.984;8.548;2022-09-12T02:29:01;6.03;;;5.43;;
32297;SDS011;18782;48.984;8.548;2022-09-12T02:31:32;5.68;;;4.93;;
32297;SDS011;18782;48.984;8.548;2022-09-12T02:34:08;7.22;;;5.15;;
32297;SDS011;18782;48.984;8.548;2022-09-12T02:36:43;7.43;;;5.30;;
32297;SDS011;18782;48.984;8.548;2022-09-12T02:39:18;6.80;;;5.32;;
32297;SDS011;18782;48.984;8.548;2022-09-12T02:41:46;6.95;;;5.32;;
32297;SDS011;18782;48.984;8.548;2022-09-12T02:44:14;6.45;;;5.40;;
32297;SDS011;18782;48.984;8.548;2022-09-12T02:46:43;7.95;;;5.72;;
32297;SDS011;18782;48.984;8.548;2022-09-12T02:49:14;6.50;;;5.15;;
32297;SDS011;18782;48.984;8.548;2022-09-12T02:51:43;5.68;;;4.93;;
32297;SDS011;18782;48.984;8.548;2022-09-12T02:54:11;7.75;;;5.57;;
32297;SDS011;18782;48.984;8.548;2022-09-12T02:56:42;7.40;;;5.60;;
32297;SDS011;18782;48.984;8.548;2022-09-12T02:59:12;5.63;;;4.97;;
32297;SDS011;18782;48.984;8.548;2022-09-12T03:02:05;5.72;;;4.93;;
32297;SDS011;18782;48.984;8.548;2022-09-12T03:04:49;10.10;;;5.65;;
32297;SDS011;18782;48.984;8.548;2022-09-12T03:07:32;5.75;;;4.75;;
32297;SDS011;18782;48.984;8.548;2022-09-12T03:10:15;6.07;;;5.47;;
32297;SDS011;18782;48.984;8.548;2022-09-12T03:12:51;6.50;;;5.55;;
32297;SDS011;18782;48.984;8.548;2022-09-12T03:15:32;6.97;;;5.50;;
32297;SDS011;18782;48.984;8.548;2022-09-12T03:18:14;8.13;;;5.57;;
32297;SDS011;18782;48.984;8.548;2022-09-12T03:20:52;6.43;;;5.53;;
32297;SDS011;18782;48.984;8.548;2022-09-12T03:23:30;6.82;;;5.75;;
32297;SDS011;18782;48.984;8.548;2022-09-12T03:26:04;6.75;;;5.45;;
32297;SDS011;18782;48.984;8.548;2022-09-12T03:31:10;8.30;;;5.90;;
32297;SDS011;18782;48.984;8.548;2022-09-12T03:33:41;6.60;;;5.85;;
32297;SDS011;18782;48.984;8.548;2022-09-12T03:36:13;6.15;;;5.55;;
32297;SDS011;18782;48.984;8.548;2022-09-12T03:38:43;6.45;;;5.63;;
32297;SDS011;18782;48.984;8.548;2022-09-12T03:41:10;9.15;;;5.70;;
32297;SDS011;18782;48.984;8.548;2022-09-12T03:43:39;5.88;;;5.28;;
32297;SDS011;18782;48.984;8.548;2022-09-12T03:46:07;9.18;;;5.65;;
32297;SDS011;18782;48.984;8.548;2022-09-12T03:48:34;6.60;;;5.55;;
32297;SDS011;18782;48.984;8.548;2022-09-12T03:51:04;6.90;;;5.82;;
32297;SDS011;18782;48.984;8.548;2022-09-12T03:53:33;6.22;;;5.63;;
32297;SDS011;18782;48.984;8.548;2022-09-12T03:56:04;9.70;;;6.15;;
32297;SDS011;18782;48.984;8.548;2022-09-12T03:58:33;10.20;;;6.00;;
32297;SDS011;18782;48.984;8.548;2022-09-12T04:01:05;8.13;;;5.75;;
32297;SDS011;18782;48.984;8.548;2022-09-12T04:03:37;6.47;;;5.68;;
32297;SDS011;18782;48.984;8.548;2022-09-12T04:06:08;8.15;;;6.40;;
32297;SDS011;18782;48.984;8.548;2022-09-12T04:08:37;5.93;;;5.32;;
32297;SDS011;18782;48.984;8.548;2022-09-12T04:11:05;6.80;;;5.28;;
32297;SDS011;18782;48.984;8.548;2022-09-12T04:13:35;6.90;;;5.78;;
32297;SDS011;18782;48.984;8.548;2022-09-12T04:16:03;6.43;;;5.82;;
32297;SDS011;18782;48.984;8.548;2022-09-12T04:18:32;7.07;;;5.60;;
32297;SDS011;18782;48.984;8.548;2022-09-12T04:21:02;6.63;;;5.85;;
32297;SDS011;18782;48.984;8.548;2022-09-12T04:23:32;9.07;;;6.38;;
32297;SDS011;18782;48.984;8.548;2022-09-12T04:26:00;7.85;;;6.00;;
32297;SDS011;18782;48.984;8.548;2022-09-12T04:28:31;7.60;;;6.28;;
32297;SDS011;18782;48.984;8.548;2022-09-12T04:31:00;7.10;;;5.97;;
32297;SDS011;18782;48.984;8.548;2022-09-12T04:33:29;6.80;;;5.47;;
32297;SDS011;18782;48.984;8.548;2022-09-12T04:36:01;8.05;;;5.82;;
32297;SDS011;18782;48.984;8.548;2022-09-12T04:38:29;9.63;;;5.68;;
32297;SDS011;18782;48.984;8.548;2022-09-12T04:40:58;7.53;;;5.68;;
32297;SDS011;18782;48.984;8.548;2022-09-12T04:43:26;7.07;;;5.93;;
32297;SDS011;18782;48.984;8.548;2022-09-12T04:45:54;6.93;;;6.15;;
32297;SDS011;18782;48.984;8.548;2022-09-12T04:48:21;5.93;;;5.28;;
32297;SDS011;18782;48.984;8.548;2022-09-12T04:50:49;6.30;;;5.70;;
32297;SDS011;18782;48.984;8.548;2022-09-12T04:53:16;8.25;;;6.40;;
32297;SDS011;18782;48.984;8.548;2022-09-12T04:55:44;8.27;;;5.72;;
32297;SDS011;18782;48.984;8.548;2022-09-12T04:58:12;6.43;;;5.82;;
32297;SDS011;18782;48.984;8.548;2022-09-12T05:00:40;9.65;;;8.25;;
32297;SDS011;18782;48.984;8.548;2022-09-12T05:03:08;10.50;;;9.02;;
32297;SDS011;18782;48.984;8.548;2022-09-12T05:05:35;9.35;;;6.88;;
32297;SDS011;18782;48.984;8.548;2022-09-12T05:08:03;12.38;;;6.60;;
32297;SDS011;18782;48.984;8.548;2022-09-12T05:10:30;7.82;;;6.40;;
32297;SDS011;18782;48.984;8.548;2022-09-12T05:12:59;6.75;;;5.85;;
32297;SDS011;18782;48.984;8.548;2022-09-12T05:15:28;6.80;;;5.82;;
32297;SDS011;18782;48.984;8.548;2022-09-12T05:17:56;6.50;;;5.47;;
32297;SDS011;18782;48.984;8.548;2022-09-12T05:20:23;8.90;;;5.93;;
32297;SDS011;18782;48.984;8.548;2022-09-12T05:22:51;7.43;;;5.90;;
32297;SDS011;18782;48.984;8.548;2022-09-12T05:25:19;6.90;;;4.97;;
32297;SDS011;18782;48.984;8.548;2022-09-12T05:27:46;9.35;;;6.13;;
32297;SDS011;18782;48.984;8.548;2022-09-12T05:30:15;7.97;;;5.75;;
32297;SDS011;18782;48.984;8.548;2022-09-12T05:32:45;8.48;;;5.63;;
32297;SDS011;18782;48.984;8.548;2022-09-12T05:35:12;7.70;;;5.28;;
32297;SDS011;18782;48.984;8.548;2022-09-12T05:40:27;7.80;;;6.53;;
32297;SDS011;18782;48.984;8.548;2022-09-12T05:42:55;6.90;;;6.00;;
32297;SDS011;18782;48.984;8.548;2022-09-12T05:45:22;8.82;;;5.57;;
32297;SDS011;18782;48.984;8.548;2022-09-12T05:47:51;8.15;;;6.15;;
32297;SDS011;18782;48.984;8.548;2022-09-12T05:50:19;6.88;;;6.07;;
32297;SDS011;18782;48.984;8.548;2022-09-12T05:52:47;11.23;;;6.38;;
32297;SDS011;18782;48.984;8.548;2022-09-12T05:55:15;9.52;;;6.40;;
32297;SDS011;18782;48.984;8.548;2022-09-12T05:57:43;10.57;;;6.85;;
32297;SDS011;18782;48.984;8.548;2022-09-12T06:00:12;8.70;;;6.28;;
32297;SDS011;18782;48.984;8.548;2022-09-12T06:02:40;11.50;;;6.70;;
32297;SDS011;18782;48.984;8.548;2022-09-12T06:05:09;10.43;;;6.78;;
32297;SDS011;18782;48.984;8.548;2022-09-12T06:07:37;8.20;;;6.03;;
32297;SDS011;18782;48.984;8.548;2022-09-12T06:10:05;8.48;;;5.88;;
32297;SDS011;18782;48.984;8.548;2022-09-12T06:12:33;8.23;;;6.05;;
32297;SDS011;18782;48.984;8.548;2022-09-12T06:15:00;8.77;;;6.50;;
32297;SDS011;18782;48.984;8.548;2022-09-12T06:17:28;7.68;;;6.00;;
32297;SDS011;18782;48.984;8.548;2022-09-12T06:19:55;8.02;;;6.28;;
32297;SDS011;18782;48.984;8.548;2022-09-12T06:22:24;10.57;;;8.65;;
32297;SDS011;18782;48.984;8.548;2022-09-12T06:24:52;7.35;;;6.45;;
32297;SDS011;18782;48.984;8.548;2022-09-12T06:27:23;7.38;;;6.57;;
32297;SDS011;18782;48.984;8.548;2022-09-12T06:29:50;7.78;;;6.75;;
32297;SDS011;18782;48.984;8.548;2022-09-12T06:32:18;7.85;;;5.95;;
32297;SDS011;18782;48.984;8.548;2022-09-12T06:34:46;6.75;;;6.05;;
32297;SDS011;18782;48.984;8.548;2022-09-12T06:37:13;6.65;;;6.05;;
32297;SDS011;18782;48.984;8.548;2022-09-12T06:39:42;7.57;;;6.00;;
32297;SDS011;18782;48.984;8.548;2022-09-12T06:42:10;6.65;;;5.95;;
32297;SDS011;18782;48.984;8.548;2022-09-12T06:44:42;6.95;;;6.25;;
32297;SDS011;18782;48.984;8.548;2022-09-12T06:47:10;6.88;;;6.05;;
32297;SDS011;18782;48.984;8.548;2022-09-12T06:49:38;9.43;;;6.00;;
32297;SDS011;18782;48.984;8.548;2022-09-12T06:52:05;7.97;;;5.63;;
32297;SDS011;18782;48.984;8.548;2022-09-12T06:54:33;8.35;;;6.00;;
32297;SDS011;18782;48.984;8.548;2022-09-12T06:57:02;7.43;;;5.30;;
32297;SDS011;18782;48.984;8.548;2022-09-12T06:59:30;6.43;;;5.70;;
32297;SDS011;18782;48.984;8.548;2022-09-12T07:01:57;7.38;;;5.53;;
32297;SDS011;18782;48.984;8.548;2022-09-12T07:04:25;6.10;;;5.50;;
32297;SDS011;18782;48.984;8.548;2022-09-12T07:06:53;7.28;;;5.38;;
32297;SDS011;18782;48.984;8.548;2022-09-12T07:09:20;6.70;;;5.78;;
32297;SDS011;18782;48.984;8.548;2022-09-12T07:11:48;6.25;;;5.45;;
32297;SDS011;18782;48.984;8.548;2022-09-12T07:14:16;6.20;;;5.15;;
32297;SDS011;18782;48.984;8.548;2022-09-12T07:16:44;11.70;;;5.78;;
32297;SDS011;18782;48.984;8.548;2022-09-12T07:19:12;6.45;;;5.47;;
32297;SDS011;18782;48.984;8.548;2022-09-12T07:21:39;5.65;;;5.10;;
32297;SDS011;18782;48.984;8.548;2022-09-12T07:24:08;6.00;;;5.40;;
32297;SDS011;18782;48.984;8.548;2022-09-12T07:26:37;6.40;;;4.88;;
32297;SDS011;18782;48.984;8.548;2022-09-12T07:29:05;6.82;;;5.28;;
32297;SDS011;18782;48.984;8.548;2022-09-12T07:31:57;6.88;;;5.07;;
32297;SDS011;18782;48.984;8.548;2022-09-12T07:34:25;8.05;;;4.82;;
32297;SDS011;18782;48.984;8.548;2022-09-12T07:36:53;6.90;;;4.20;;
32297;SDS011;18782;48.984;8.548;2022-09-12T07:39:21;6.15;;;4.03;;
32297;SDS011;18782;48.984;8.548;2022-09-12T07:41:49;3.97;;;3.67;;
32297;SDS011;18782;48.984;8.548;2022-09-12T07:44:16;5.97;;;4.25;;
32297;SDS011;18782;48.984;8.548;2022-09-12T07:46:44;5.53;;;4.50;;
32297;SDS011;18782;48.984;8.548;2022-09-12T07:49:13;5.18;;;3.92;;
32297;SDS011;18782;48.984;8.548;2022-09-12T07:51:41;5.13;;;4.00;;
32297;SDS011;18782;48.984;8.548;2022-09-12T07:54:08;4.35;;;3.47;;
32297;SDS011;18782;48.984;8.548;2022-09-12T07:56:36;4.65;;;3.85;;
32297;SDS011;18782;48.984;8.548;2022-09-12T07:59:04;6.22;;;3.53;;
32297;SDS011;18782;48.984;8.548;2022-09-12T08:01:32;4.80;;;3.55;;
32297;SDS011;18782;48.984;8.548;2022-09-12T08:04:00;3.40;;;3.10;;
32297;SDS011;18782;48.984;8.548;2022-09-12T08:06:32;8.20;;;3.50;;
32297;SDS011;18782;48.984;8.548;2022-09-12T08:09:01;3.78;;;3.40;;
32297;SDS011;18782;48.984;8.548;2022-09-12T08:11:29;3.50;;;3.20;;
32297;SDS011;18782;48.984;8.548;2022-09-12T08:13:57;4.72;;;3.20;;
32297;SDS011;18782;48.984;8.548;2022-09-12T08:16:27;3.85;;;3.55;;
32297;SDS011;18782;48.984;8.548;2022-09-12T08:18:56;3.35;;;2.90;;
32297;SDS011;18782;48.984;8.548;2022-09-12T08:21:26;5.55;;;2.95;;
32297;SDS011;18782;48.984;8.548;2022-09-12T08:23:57;3.50;;;2.72;;
32297;SDS011;18782;48.984;8.548;2022-09-12T08:26:26;4.07;;;3.30;;
32297;SDS011;18782;48.984;8.548;2022-09-12T08:28:54;4.00;;;3.15;;
32297;SDS011;18782;48.984;8.548;2022-09-12T08:31:23;3.92;;;3.28;;
32297;SDS011;18782;48.984;8.548;2022-09-12T08:33:53;3.22;;;2.83;;
32297;SDS011;18782;48.984;8.548;2022-09-12T08:36:23;3.40;;;3.10;;
32297;SDS011;18782;48.984;8.548;2022-09-12T08:38:53;4.18;;;2.80;;
32297;SDS011;18782;48.984;8.548;2022-09-12T08:43:58;6.63;;;3.05;;
32297;SDS011;18782;48.984;8.548;2022-09-12T08:46:35;9.68;;;3.90;;
32297;SDS011;18782;48.984;8.548;2022-09-12T08:49:11;6.05;;;4.00;;
32297;SDS011;18782;48.984;8.548;2022-09-12T08:51:41;10.40;;;4.07;;
32297;SDS011;18782;48.984;8.548;2022-09-12T08:54:12;4.45;;;4.00;;
32297;SDS011;18782;48.984;8.548;2022-09-12T08:56:48;14.98;;;3.85;;
32297;SDS011;18782;48.984;8.548;2022-09-12T08:59:16;4.85;;;3.00;;
32297;SDS011;18782;48.984;8.548;2022-09-12T09:01:43;6.50;;;3.30;;
32297;SDS011;18782;48.984;8.548;2022-09-12T09:07:18;3.78;;;3.20;;
32297;SDS011;18782;48.984;8.548;2022-09-12T09:10:07;5.75;;;3.33;;
32297;SDS011;18782;48.984;8.548;2022-09-12T09:12:45;3.30;;;2.72;;
32297;SDS011;18782;48.984;8.548;2022-09-12T09:15:32;4.38;;;3.15;;
32297;SDS011;18782;48.984;8.548;2022-09-12T09:18:09;3.47;;;2.95;;
32297;SDS011;18782;48.984;8.548;2022-09-12T09:20:43;3.33;;;2.92;;
32297;SDS011;18782;48.984;8.548;2022-09-12T09:23:17;3.83;;;2.47;;
32297;SDS011;18782;48.984;8.548;2022-09-12T09:25:50;3.03;;;2.72;;
32297;SDS011;18782;48.984;8.548;2022-09-12T09:28:26;3.40;;;2.50;;
32297;SDS011;18782;48.984;8.548;2022-09-12T09:31:00;2.53;;;2.33;;
32297;SDS011;18782;48.984;8.548;2022-09-12T09:33:30;4.68;;;2.45;;
32297;SDS011;18782;48.984;8.548;2022-09-12T09:36:03;3.20;;;2.53;;
32297;SDS011;18782;48.984;8.548;2022-09-12T09:38:40;4.30;;;2.58;;
32297;SDS011;18782;48.984;8.548;2022-09-12T09:41:26;3.63;;;2.08;;
32297;SDS011;18782;48.984;8.548;2022-09-12T09:44:05;3.75;;;2.40;;
32297;SDS011;18782;48.984;8.548;2022-09-12T09:46:37;4.15;;;2.25;;
32297;SDS011;18782;48.984;8.548;2022-09-12T09:49:05;3.13;;;2.25;;
32297;SDS011;18782;48.984;8.548;2022-09-12T09:51:37;2.88;;;2.10;;
32297;SDS011;18782;48.984;8.548;2022-09-12T09:54:09;9.07;;;2.30;;
32297;SDS011;18782;48.984;8.548;2022-09-12T09:56:43;2.55;;;2.10;;
32297;SDS011;18782;48.984;8.548;2022-09-12T09:59:14;2.55;;;2.17;;
32297;SDS011;18782;48.984;8.548;2022-09-12T10:01:44;3.57;;;2.03;;
32297;SDS011;18782;48.984;8.548;2022-09-12T10:04:18;3.22;;;2.00;;
32297;SDS011;18782;48.984;8.548;2022-09-12T10:06:49;2.97;;;2.10;;
32297;SDS011;18782;48.984;8.548;2022-09-12T10:09:20;2.95;;;2.00;;
32297;SDS011;18782;48.984;8.548;2022-09-12T10:11:50;3.13;;;1.70;;
32297;SDS011;18782;48.984;8.548;2022-09-12T10:14:30;2.63;;;2.38;;
32297;SDS011;18782;48.984;8.548;2022-09-12T10:17:01;3.35;;;1.85;;
32297;SDS011;18782;48.984;8.548;2022-09-12T10:19:47;4.82;;;2.03;;
32297;SDS011;18782;48.984;8.548;2022-09-12T10:22:35;4.93;;;2.30;;
32297;SDS011;18782;48.984;8.548;2022-09-12T10:25:10;2.85;;;2.00;;
32297;SDS011;18782;48.984;8.548;2022-09-12T10:27:50;3.30;;;2.08;;
32297;SDS011;18782;48.984;8.548;2022-09-12T10:30:20;2.67;;;2.22;;
32297;SDS011;18782;48.984;8.548;2022-09-12T10:32:50;3.70;;;2.65;;
32297;SDS011;18782;48.984;8.548;2022-09-12T10:35:19;12.55;;;8.82;;
32297;SDS011;18782;48.984;8.548;2022-09-12T10:37:52;9.27;;;7.57;;
32297;SDS011;18782;48.984;8.548;2022-09-12T10:40:22;9.60;;;5.05;;
32297;SDS011;18782;48.984;8.548;2022-09-12T10:42:52;1.90;;;1.63;;
32297;SDS011;18782;48.984;8.548;2022-09-12T10:45:24;3.00;;;1.85;;
32297;SDS011;18782;48.984;8.548;2022-09-12T10:47:54;2.25;;;1.42;;
32297;SDS011;18782;48.984;8.548;2022-09-12T10:50:25;2.67;;;1.40;;
32297;SDS011;18782;48.984;8.548;2022-09-12T10:55:40;1.30;;;1.20;;
32297;SDS011;18782;48.984;8.548;2022-09-12T10:58:27;3.60;;;1.85;;
32297;SDS011;18782;48.984;8.548;2022-09-12T11:01:06;1.73;;;1.20;;
32297;SDS011;18782;48.984;8.548;2022-09-12T11:03:49;3.45;;;1.33;;
32297;SDS011;18782;48.984;8.548;2022-09-12T11:06:32;2.58;;;1.30;;
32297;SDS011;18782;48.984;8.548;2022-09-12T11:09:08;1.98;;;1.10;;
32297;SDS011;18782;48.984;8.548;2022-09-12T11:11:47;2.22;;;1.00;;
32297;SDS011;18782;48.984;8.548;2022-09-12T11:14:27;2.72;;;1.20;;
32297;SDS011;18782;48.984;8.548;2022-09-12T11:17:06;1.98;;;1.27;;
32297;SDS011;18782;48.984;8.548;2022-09-12T11:19:45;2.78;;;1.17;;
32297;SDS011;18782;48.984;8.548;2022-09-12T11:22:28;2.88;;;1.30;;
32297;SDS011;18782;48.984;8.548;2022-09-12T11:25:10;1.52;;;1.10;;
32297;SDS011;18782;48.984;8.548;2022-09-12T11:27:56;1.80;;;1.10;;
32297;SDS011;18782;48.984;8.548;2022-09-12T11:30:33;3.50;;;1.20;;
32297;SDS011;18782;48.984;8.548;2022-09-12T11:33:21;2.42;;;1.23;;
32297;SDS011;18782;48.984;8.548;2022-09-12T11:38:32;2.72;;;1.00;;
32297;SDS011;18782;48.984;8.548;2022-09-12T11:41:19;3.55;;;1.00;;
32297;SDS011;18782;48.984;8.548;2022-09-12T11:43:53;1.98;;;1.08;;
32297;SDS011;18782;48.984;8.548;2022-09-12T11:46:27;2.17;;;1.10;;
32297;SDS011;18782;48.984;8.548;2022-09-12T11:49:00;1.23;;;0.80;;
32297;SDS011;18782;48.984;8.548;2022-09-12T11:51:38;2.40;;;0.85;;
32297;SDS011;18782;48.984;8.548;2022-09-12T11:54:12;2.30;;;1.10;;
32297;SDS011;18782;48.984;8.548;2022-09-12T11:56:45;1.40;;;0.90;;
32297;SDS011;18782;48.984;8.548;2022-09-12T11:59:17;2.28;;;1.00;;
32297;SDS011;18782;48.984;8.548;2022-09-12T12:01:57;0.80;;;0.70;;
32297;SDS011;18782;48.984;8.548;2022-09-12T12:04:28;1.35;;;0.68;;
32297;SDS011;18782;48.984;8.548;2022-09-12T12:07:04;0.77;;;0.70;;
32297;SDS011;18782;48.984;8.548;2022-09-12T12:09:45;1.58;;;0.88;;
32297;SDS011;18782;48.984;8.548;2022-09-12T12:12:18;1.23;;;0.70;;
32297;SDS011;18782;48.984;8.548;2022-09-12T12:14:51;1.17;;;0.68;;
32297;SDS011;18782;48.984;8.548;2022-09-12T12:17:21;0.90;;;0.60;;
32297;SDS011;18782;48.984;8.548;2022-09-12T12:19:57;1.55;;;0.77;;
32297;SDS011;18782;48.984;8.548;2022-09-12T12:22:31;1.05;;;0.80;;
32297;SDS011;18782;48.984;8.548;2022-09-12T12:25:13;2.72;;;0.80;;
32297;SDS011;18782;48.984;8.548;2022-09-12T12:27:55;1.35;;;0.70;;
32297;SDS011;18782;48.984;8.548;2022-09-12T12:36:34;1.00;;;0.50;;
32297;SDS011;18782;48.984;8.548;2022-09-12T12:45:43;1.48;;;0.50;;
32297;SDS011;18782;48.984;8.548;2022-09-12T12:48:17;1.05;;;0.65;;
32297;SDS011;18782;48.984;8.548;2022-09-12T12:50:45;2.35;;;0.50;;
32297;SDS011;18782;48.984;8.548;2022-09-12T12:53:16;2.10;;;0.68;;
32297;SDS011;18782;48.984;8.548;2022-09-12T12:55:48;1.30;;;0.50;;
32297;SDS011;18782;48.984;8.548;2022-09-12T12:58:22;0.70;;;0.60;;
32297;SDS011;18782;48.984;8.548;2022-09-12T13:01:08;1.02;;;0.68;;
32297;SDS011;18782;48.984;8.548;2022-09-12T13:03:39;0.85;;;0.45;;
32297;SDS011;18782;48.984;8.548;2022-09-12T13:06:20;1.00;;;0.43;;
32297;SDS011;18782;48.984;8.548;2022-09-12T13:08:58;0.70;;;0.60;;
32297;SDS011;18782;48.984;8.548;2022-09-12T13:11:29;2.90;;;0.82;;
32297;SDS011;18782;48.984;8.548;2022-09-12T13:14:00;1.15;;;0.50;;
32297;SDS011;18782;48.984;8.548;2022-09-12T13:16:30;3.03;;;0.60;;
32297;SDS011;18782;48.984;8.548;2022-09-12T13:19:03;0.57;;;0.40;;
32297;SDS011;18782;48.984;8.548;2022-09-12T13:21:32;1.05;;;0.50;;
32297;SDS011;18782;48.984;8.548;2022-09-12T13:24:02;0.50;;;0.47;;
32297;SDS011;18782;48.984;8.548;2022-09-12T13:26:32;0.75;;;0.40;;
32297;SDS011;18782;48.984;8.548;2022-09-12T13:29:08;0.50;;;0.32;;
32297;SDS011;18782;48.984;8.548;2022-09-12T13:31:37;0.98;;;0.50;;
32297;SDS011;18782;48.984;8.548;2022-09-12T13:34:13;0.70;;;0.40;;
32297;SDS011;18782;48.984;8.548;2022-09-12T13:36:49;0.82;;;0.50;;
32297;SDS011;18782;48.984;8.548;2022-09-12T13:39:37;0.85;;;0.50;;
32297;SDS011;18782;48.984;8.548;2022-09-12T13:45:04;2.28;;;0.60;;
32297;SDS011;18782;48.984;8.548;2022-09-12T13:47:39;0.68;;;0.30;;
32297;SDS011;18782;48.984;8.548;2022-09-12T13:50:13;0.60;;;0.30;;
32297;SDS011;18782;48.984;8.548;2022-09-12T13:52:45;0.70;;;0.40;;
32297;SDS011;18782;48.984;8.548;2022-09-12T13:55:26;1.40;;;0.40;;
32297;SDS011;18782;48.984;8.548;2022-09-12T13:57:57;0.50;;;0.30;;
32297;SDS011;18782;48.984;8.548;2022-09-12T14:00:27;0.80;;;0.50;;
32297;SDS011;18782;48.984;8.548;2022-09-12T14:02:57;0.82;;;0.50;;
32297;SDS011;18782;48.984;8.548;2022-09-12T14:05:43;2.20;;;0.30;;
32297;SDS011;18782;48.984;8.548;2022-09-12T14:08:14;0.52;;;0.47;;
32297;SDS011;18782;48.984;8.548;2022-09-12T14:10:43;2.55;;;0.47;;
32297;SDS011;18782;48.984;8.548;2022-09-12T14:13:15;0.70;;;0.40;;
32297;SDS011;18782;48.984;8.548;2022-09-12T14:15:46;1.40;;;0.40;;
32297;SDS011;18782;48.984;8.548;2022-09-12T14:18:21;1.05;;;0.35;;
32297;SDS011;18782;48.984;8.548;2022-09-12T14:20:50;0.60;;;0.40;;
32297;SDS011;18782;48.984;8.548;2022-09-12T14:23:21;0.60;;;0.30;;
32297;SDS011;18782;48.984;8.548;2022-09-12T14:25:54;1.15;;;0.50;;
32297;SDS011;18782;48.984;8.548;2022-09-12T14:28:25;0.47;;;0.38;;
32297;SDS011;18782;48.984;8.548;2022-09-12T14:30:56;0.70;;;0.50;;
32297;SDS011;18782;48.984;8.548;2022-09-12T14:33:25;0.77;;;0.40;;
32297;SDS011;18782;48.984;8.548;2022-09-12T14:36:06;0.70;;;0.40;;
32297;SDS011;18782;48.984;8.548;2022-09-12T14:38:37;0.82;;;0.50;;
32297;SDS011;18782;48.984;8.548;2022-09-12T14:41:10;1.08;;;0.52;;
32297;SDS011;18782;48.984;8.548;2022-09-12T14:46:14;1.00;;;0.50;;
32297;SDS011;18782;48.984;8.548;2022-09-12T14:48:45;1.70;;;0.50;;
32297;SDS011;18782;48.984;8.548;2022-09-12T14:51:18;0.80;;;0.50;;
32297;SDS011;18782;48.984;8.548;2022-09-12T14:53:49;0.40;;;0.40;;
32297;SDS011;18782;48.984;8.548;2022-09-12T14:56:19;0.70;;;0.40;;
32297;SDS011;18782;48.984;8.548;2022-09-12T14:58:48;0.80;;;0.37;;
32297;SDS011;18782;48.984;8.548;2022-09-12T15:01:25;2.05;;;0.80;;
32297;SDS011;18782;48.984;8.548;2022-09-12T15:03:54;1.13;;;0.45;;
32297;SDS011;18782;48.984;8.548;2022-09-12T15:06:24;0.40;;;0.40;;
32297;SDS011;18782;48.984;8.548;2022-09-12T15:08:55;0.55;;;0.40;;
32297;SDS011;18782;48.984;8.548;2022-09-12T15:11:25;0.63;;;0.40;;
32297;SDS011;18782;48.984;8.548;2022-09-12T15:13:53;1.50;;;0.40;;
32297;SDS011;18782;48.984;8.548;2022-09-12T15:16:20;0.68;;;0.40;;
32297;SDS011;18782;48.984;8.548;2022-09-12T15:18:48;0.60;;;0.50;;
32297;SDS011;18782;48.984;8.548;2022-09-12T15:21:16;2.35;;;1.00;;
32297;SDS011;18782;48.984;8.548;2022-09-12T15:23:46;0.50;;;0.35;;
32297;SDS011;18782;48.984;8.548;2022-09-12T15:26:16;1.27;;;0.55;;
32297;SDS011;18782;48.984;8.548;2022-09-12T15:28:47;2.55;;;0.60;;
32297;SDS011;18782;48.984;8.548;2022-09-12T15:31:18;0.70;;;0.40;;
32297;SDS011;18782;48.984;8.548;2022-09-12T15:33:50;0.77;;;0.50;;
32297;SDS011;18782;48.984;8.548;2022-09-12T15:36:19;3.00;;;0.60;;
32297;SDS011;18782;48.984;8.548;2022-09-12T15:38:48;0.75;;;0.63;;
32297;SDS011;18782;48.984;8.548;2022-09-12T15:41:17;1.05;;;0.47;;
32297;SDS011;18782;48.984;8.548;2022-09-12T15:43:47;1.05;;;0.50;;
32297;SDS011;18782;48.984;8.548;2022-09-12T15:46:15;1.73;;;0.47;;
32297;SDS011;18782;48.984;8.548;2022-09-12T15:48:44;0.30;;;0.30;;
32297;SDS011;18782;48.984;8.548;2022-09-12T15:51:12;3.15;;;1.10;;
32297;SDS011;18782;48.984;8.548;2022-09-12T15:53:42;1.60;;;0.50;;